sensor_id;sensor_type;location;lat;lon;timestamp;temperature;humidity
21255;DHT22;10785;50.674;17.954;2023-07-24T00:01:56;22.10;36.60
21255;DHT22;10785;50.674;17.954;2023-07-24T00:04:25;22.00;38.20
21255;DHT22;10785;50.674;17.954;2023-07-24T00:06:53;22.00;37.40
21255;DHT22;10785;50.674;17.954;2023-07-24T00:09:24;21.90;36.90
21255;DHT22;10785;50.674;17.954;2023-07-24T00:11:52;21.80;41.10
21255;DHT22;10785;50.674;17.954;2023-07-24T00:14:21;21.70;41.60
21255;DHT22;10785;50.674;17.954;2023-07-24T00:16:50;21.60;43.80
21255;DHT22;10785;50.674;17.954;2023-07-24T00:19:19;21.60;45.60
21255;DHT22;10785;50.674;17.954;2023-07-24T00:21:48;21.50;46.30
21255;DHT22;10785;50.674;17.954;2023-07-24T00:24:16;21.40;49.10
21255;DHT22;10785;50.674;17.954;2023-07-24T00:26:46;21.30;51.30
21255;DHT22;10785;50.674;17.954;2023-07-24T00:29:14;21.30;52.90
21255;DHT22;10785;50.674;17.954;2023-07-24T00:31:43;21.20;54.70
21255;DHT22;10785;50.674;17.954;2023-07-24T00:34:12;21.10;53.10
21255;DHT22;10785;50.674;17.954;2023-07-24T00:36:40;21.10;55.50
21255;DHT22;10785;50.674;17.954;2023-07-24T00:39:14;21.20;50.20
21255;DHT22;10785;50.674;17.954;2023-07-24T00:41:43;21.10;50.50
21255;DHT22;10785;50.674;17.954;2023-07-24T00:44:13;21.10;52.20
21255;DHT22;10785;50.674;17.954;2023-07-24T00:46:42;21.00;53.60
21255;DHT22;10785;50.674;17.954;2023-07-24T00:49:12;21.00;57.90
21255;DHT22;10785;50.674;17.954;2023-07-24T00:51:41;21.00;60.10
21255;DHT22;10785;50.674;17.954;2023-07-24T00:54:11;21.00;64.50
21255;DHT22;10785;50.674;17.954;2023-07-24T00:56:41;20.90;61.00
21255;DHT22;10785;50.674;17.954;2023-07-24T00:59:10;20.90;61.30
21255;DHT22;10785;50.674;17.954;2023-07-24T01:01:43;20.80;69.10
21255;DHT22;10785;50.674;17.954;2023-07-24T01:04:13;20.70;74.30
21255;DHT22;10785;50.674;17.954;2023-07-24T01:06:42;20.60;80.10
21255;DHT22;10785;50.674;17.954;2023-07-24T01:09:10;20.40;82.20
21255;DHT22;10785;50.674;17.954;2023-07-24T01:11:43;20.30;84.80
21255;DHT22;10785;50.674;17.954;2023-07-24T01:14:16;20.20;89.30
21255;DHT22;10785;50.674;17.954;2023-07-24T01:16:48;20.10;90.20
21255;DHT22;10785;50.674;17.954;2023-07-24T01:19:25;20.00;92.00
21255;DHT22;10785;50.674;17.954;2023-07-24T01:22:05;19.90;93.20
21255;DHT22;10785;50.674;17.954;2023-07-24T01:24:48;19.80;95.20
21255;DHT22;10785;50.674;17.954;2023-07-24T01:27:23;19.80;96.30
21255;DHT22;10785;50.674;17.954;2023-07-24T01:29:53;19.70;97.30
21255;DHT22;10785;50.674;17.954;2023-07-24T01:32:21;19.70;98.60
21255;DHT22;10785;50.674;17.954;2023-07-24T01:34:51;19.70;99.50
21255;DHT22;10785;50.674;17.954;2023-07-24T01:37:21;19.60;99.90
21255;DHT22;10785;50.674;17.954;2023-07-24T01:39:51;19.50;99.90
21255;DHT22;10785;50.674;17.954;2023-07-24T01:42:22;19.50;99.90
21255;DHT22;10785;50.674;17.954;2023-07-24T01:44:52;19.40;99.90
21255;DHT22;10785;50.674;17.954;2023-07-24T01:47:21;19.40;99.90
21255;DHT22;10785;50.674;17.954;2023-07-24T01:49:50;19.50;99.90
21255;DHT22;10785;50.674;17.954;2023-07-24T01:52:19;19.50;99.90
21255;DHT22;10785;50.674;17.954;2023-07-24T01:54:47;19.50;99.90
21255;DHT22;10785;50.674;17.954;2023-07-24T01:57:16;19.40;99.90
21255;DHT22;10785;50.674;17.954;2023-07-24T01:59:46;19.40;99.90
21255;DHT22;10785;50.674;17.954;2023-07-24T02:02:16;19.30;99.90
21255;DHT22;10785;50.674;17.954;2023-07-24T02:04:46;19.30;99.90
21255;DHT22;10785;50.674;17.954;2023-07-24T02:07:15;19.30;99.90
21255;DHT22;10785;50.674;17.954;2023-07-24T02:09:43;19.30;99.90
21255;DHT22;10785;50.674;17.954;2023-07-24T02:12:12;19.30;99.90
21255;DHT22;10785;50.674;17.954;2023-07-24T02:14:41;19.20;99.90
21255;DHT22;10785;50.674;17.954;2023-07-24T02:17:12;19.20;99.90
21255;DHT22;10785;50.674;17.954;2023-07-24T02:19:40;19.20;99.90
21255;DHT22;10785;50.674;17.954;2023-07-24T02:22:09;19.20;99.90
21255;DHT22;10785;50.674;17.954;2023-07-24T02:24:38;19.30;99.90
21255;DHT22;10785;50.674;17.954;2023-07-24T02:27:23;19.30;99.90
21255;DHT22;10785;50.674;17.954;2023-07-24T02:29:52;19.30;99.90
21255;DHT22;10785;50.674;17.954;2023-07-24T02:32:23;19.30;99.90
21255;DHT22;10785;50.674;17.954;2023-07-24T02:34:52;19.30;99.90
21255;DHT22;10785;50.674;17.954;2023-07-24T02:37:21;19.30;99.90
21255;DHT22;10785;50.674;17.954;2023-07-24T02:39:51;19.30;99.90
21255;DHT22;10785;50.674;17.954;2023-07-24T02:42:20;19.20;99.90
21255;DHT22;10785;50.674;17.954;2023-07-24T02:44:50;19.20;99.90
21255;DHT22;10785;50.674;17.954;2023-07-24T02:47:22;19.20;99.90
21255;DHT22;10785;50.674;17.954;2023-07-24T02:49:51;19.20;99.90
21255;DHT22;10785;50.674;17.954;2023-07-24T02:52:19;19.20;99.90
21255;DHT22;10785;50.674;17.954;2023-07-24T02:54:48;19.20;99.90
21255;DHT22;10785;50.674;17.954;2023-07-24T02:57:17;19.20;99.90
21255;DHT22;10785;50.674;17.954;2023-07-24T02:59:45;19.20;99.90
21255;DHT22;10785;50.674;17.954;2023-07-24T03:02:14;19.20;99.90
21255;DHT22;10785;50.674;17.954;2023-07-24T03:04:44;19.30;99.90
21255;DHT22;10785;50.674;17.954;2023-07-24T03:07:12;19.30;99.90
21255;DHT22;10785;50.674;17.954;2023-07-24T03:09:41;19.30;99.90
21255;DHT22;10785;50.674;17.954;2023-07-24T03:12:09;19.30;99.90
21255;DHT22;10785;50.674;17.954;2023-07-24T03:14:38;19.30;99.90
21255;DHT22;10785;50.674;17.954;2023-07-24T03:17:07;19.40;99.90
21255;DHT22;10785;50.674;17.954;2023-07-24T03:19:36;19.40;99.90
21255;DHT22;10785;50.674;17.954;2023-07-24T03:22:05;19.40;99.90
21255;DHT22;10785;50.674;17.954;2023-07-24T03:24:34;19.40;99.90
21255;DHT22;10785;50.674;17.954;2023-07-24T03:27:03;19.40;99.90
21255;DHT22;10785;50.674;17.954;2023-07-24T03:29:32;19.40;99.90
21255;DHT22;10785;50.674;17.954;2023-07-24T03:32:01;19.50;99.90
21255;DHT22;10785;50.674;17.954;2023-07-24T03:34:29;19.50;99.90
21255;DHT22;10785;50.674;17.954;2023-07-24T03:36:58;19.50;99.90
21255;DHT22;10785;50.674;17.954;2023-07-24T03:39:28;19.50;99.90
21255;DHT22;10785;50.674;17.954;2023-07-24T03:41:56;19.50;99.90
21255;DHT22;10785;50.674;17.954;2023-07-24T03:44:25;19.50;99.90
21255;DHT22;10785;50.674;17.954;2023-07-24T03:46:54;19.50;99.90
21255;DHT22;10785;50.674;17.954;2023-07-24T03:49:23;19.50;99.90
21255;DHT22;10785;50.674;17.954;2023-07-24T03:51:51;19.50;99.90
21255;DHT22;10785;50.674;17.954;2023-07-24T03:54:20;19.50;99.90
21255;DHT22;10785;50.674;17.954;2023-07-24T03:56:50;19.50;99.90
21255;DHT22;10785;50.674;17.954;2023-07-24T03:59:18;19.70;99.90
21255;DHT22;10785;50.674;17.954;2023-07-24T04:01:47;19.80;99.80
21255;DHT22;10785;50.674;17.954;2023-07-24T04:04:16;19.90;99.70
21255;DHT22;10785;50.674;17.954;2023-07-24T04:06:45;20.10;99.40
21255;DHT22;10785;50.674;17.954;2023-07-24T04:09:14;20.50;99.30
21255;DHT22;10785;50.674;17.954;2023-07-24T04:11:43;21.10;95.20
21255;DHT22;10785;50.674;17.954;2023-07-24T04:14:13;21.50;93.60
21255;DHT22;10785;50.674;17.954;2023-07-24T04:16:41;21.70;91.00
21255;DHT22;10785;50.674;17.954;2023-07-24T04:19:10;22.20;86.80
21255;DHT22;10785;50.674;17.954;2023-07-24T04:21:41;22.90;71.00
21255;DHT22;10785;50.674;17.954;2023-07-24T04:24:10;23.90;55.70
21255;DHT22;10785;50.674;17.954;2023-07-24T04:26:38;24.90;41.30
21255;DHT22;10785;50.674;17.954;2023-07-24T04:29:07;25.60;26.10
21255;DHT22;10785;50.674;17.954;2023-07-24T04:31:37;26.00;20.80
21255;DHT22;10785;50.674;17.954;2023-07-24T04:34:06;26.60;16.00
21255;DHT22;10785;50.674;17.954;2023-07-24T04:36:34;26.60;14.40
21255;DHT22;10785;50.674;17.954;2023-07-24T04:39:03;26.30;15.40
21255;DHT22;10785;50.674;17.954;2023-07-24T04:41:32;26.40;15.00
21255;DHT22;10785;50.674;17.954;2023-07-24T04:44:00;26.70;11.60
21255;DHT22;10785;50.674;17.954;2023-07-24T04:46:29;26.70;11.60
21255;DHT22;10785;50.674;17.954;2023-07-24T04:49:00;27.00;8.40
21255;DHT22;10785;50.674;17.954;2023-07-24T04:51:28;27.00;6.30
21255;DHT22;10785;50.674;17.954;2023-07-24T04:53:59;26.80;6.50
21255;DHT22;10785;50.674;17.954;2023-07-24T04:56:27;26.90;5.50
21255;DHT22;10785;50.674;17.954;2023-07-24T04:58:56;26.90;3.70
21255;DHT22;10785;50.674;17.954;2023-07-24T05:01:25;26.40;4.90
21255;DHT22;10785;50.674;17.954;2023-07-24T05:03:54;25.90;8.20
21255;DHT22;10785;50.674;17.954;2023-07-24T05:06:24;26.20;8.10
21255;DHT22;10785;50.674;17.954;2023-07-24T05:08:52;26.40;6.40
21255;DHT22;10785;50.674;17.954;2023-07-24T05:11:21;26.70;4.90
21255;DHT22;10785;50.674;17.954;2023-07-24T05:13:50;26.50;4.90
21255;DHT22;10785;50.674;17.954;2023-07-24T05:16:18;26.50;5.90
21255;DHT22;10785;50.674;17.954;2023-07-24T05:18:47;26.40;6.10
21255;DHT22;10785;50.674;17.954;2023-07-24T05:21:15;26.70;5.10
21255;DHT22;10785;50.674;17.954;2023-07-24T05:23:45;26.90;5.80
21255;DHT22;10785;50.674;17.954;2023-07-24T05:26:14;27.50;3.10
21255;DHT22;10785;50.674;17.954;2023-07-24T05:28:43;28.40;1.00
21255;DHT22;10785;50.674;17.954;2023-07-24T05:31:11;29.10;1.00
21255;DHT22;10785;50.674;17.954;2023-07-24T05:33:40;29.80;1.00
21255;DHT22;10785;50.674;17.954;2023-07-24T05:36:09;30.30;1.00
21255;DHT22;10785;50.674;17.954;2023-07-24T05:38:37;30.30;1.00
21255;DHT22;10785;50.674;17.954;2023-07-24T05:41:07;30.90;1.00
21255;DHT22;10785;50.674;17.954;2023-07-24T05:43:36;31.00;1.00
21255;DHT22;10785;50.674;17.954;2023-07-24T05:46:05;31.20;1.00
21255;DHT22;10785;50.674;17.954;2023-07-24T05:48:33;31.30;1.00
21255;DHT22;10785;50.674;17.954;2023-07-24T05:51:02;31.80;1.00
21255;DHT22;10785;50.674;17.954;2023-07-24T05:53:30;32.20;1.00
21255;DHT22;10785;50.674;17.954;2023-07-24T05:56:00;32.40;1.00
21255;DHT22;10785;50.674;17.954;2023-07-24T05:58:31;32.80;1.00
21255;DHT22;10785;50.674;17.954;2023-07-24T06:01:00;32.50;1.00
21255;DHT22;10785;50.674;17.954;2023-07-24T06:03:29;32.70;1.00
21255;DHT22;10785;50.674;17.954;2023-07-24T06:05:57;32.60;1.00
21255;DHT22;10785;50.674;17.954;2023-07-24T06:08:26;32.10;1.00
21255;DHT22;10785;50.674;17.954;2023-07-24T06:10:54;31.80;1.00
21255;DHT22;10785;50.674;17.954;2023-07-24T06:13:23;31.60;1.00
21255;DHT22;10785;50.674;17.954;2023-07-24T06:15:53;32.20;1.00
21255;DHT22;10785;50.674;17.954;2023-07-24T06:18:22;32.40;1.00
21255;DHT22;10785;50.674;17.954;2023-07-24T06:20:52;32.40;1.00
21255;DHT22;10785;50.674;17.954;2023-07-24T06:23:21;33.10;1.00
21255;DHT22;10785;50.674;17.954;2023-07-24T06:25:50;33.30;1.00
21255;DHT22;10785;50.674;17.954;2023-07-24T06:28:19;33.80;1.00
21255;DHT22;10785;50.674;17.954;2023-07-24T06:30:47;33.60;1.00
21255;DHT22;10785;50.674;17.954;2023-07-24T06:33:17;34.00;1.00
21255;DHT22;10785;50.674;17.954;2023-07-24T06:35:46;34.10;1.00
21255;DHT22;10785;50.674;17.954;2023-07-24T06:38:14;34.20;1.00
21255;DHT22;10785;50.674;17.954;2023-07-24T06:40:59;34.10;1.00
21255;DHT22;10785;50.674;17.954;2023-07-24T06:43:28;33.80;1.00
21255;DHT22;10785;50.674;17.954;2023-07-24T06:45:57;33.60;1.00
21255;DHT22;10785;50.674;17.954;2023-07-24T06:48:27;32.90;1.00
21255;DHT22;10785;50.674;17.954;2023-07-24T06:50:55;32.40;1.00
21255;DHT22;10785;50.674;17.954;2023-07-24T06:53:34;32.30;1.00
21255;DHT22;10785;50.674;17.954;2023-07-24T06:56:03;32.40;1.00
21255;DHT22;10785;50.674;17.954;2023-07-24T06:58:32;33.00;1.00
21255;DHT22;10785;50.674;17.954;2023-07-24T07:01:04;33.60;1.00
21255;DHT22;10785;50.674;17.954;2023-07-24T07:03:34;32.90;1.00
21255;DHT22;10785;50.674;17.954;2023-07-24T07:06:03;32.50;1.00
21255;DHT22;10785;50.674;17.954;2023-07-24T07:08:34;32.20;1.00
21255;DHT22;10785;50.674;17.954;2023-07-24T07:11:02;31.70;1.00
21255;DHT22;10785;50.674;17.954;2023-07-24T07:13:31;31.50;1.00
21255;DHT22;10785;50.674;17.954;2023-07-24T07:15:59;31.20;1.00
21255;DHT22;10785;50.674;17.954;2023-07-24T07:18:28;30.90;1.00
21255;DHT22;10785;50.674;17.954;2023-07-24T07:20:58;30.50;1.00
21255;DHT22;10785;50.674;17.954;2023-07-24T07:23:27;29.90;1.00
21255;DHT22;10785;50.674;17.954;2023-07-24T07:25:55;29.50;1.00
21255;DHT22;10785;50.674;17.954;2023-07-24T07:28:24;29.10;1.00
21255;DHT22;10785;50.674;17.954;2023-07-24T07:30:54;28.70;1.00
21255;DHT22;10785;50.674;17.954;2023-07-24T07:33:22;28.50;1.00
21255;DHT22;10785;50.674;17.954;2023-07-24T07:35:51;28.50;1.00
21255;DHT22;10785;50.674;17.954;2023-07-24T07:38:21;28.10;1.00
21255;DHT22;10785;50.674;17.954;2023-07-24T07:40:51;28.20;1.00
21255;DHT22;10785;50.674;17.954;2023-07-24T07:43:20;28.40;1.00
21255;DHT22;10785;50.674;17.954;2023-07-24T07:45:48;28.50;1.00
21255;DHT22;10785;50.674;17.954;2023-07-24T07:48:17;28.70;1.00
21255;DHT22;10785;50.674;17.954;2023-07-24T07:50:50;28.80;1.00
21255;DHT22;10785;50.674;17.954;2023-07-24T07:53:19;28.90;1.00
21255;DHT22;10785;50.674;17.954;2023-07-24T07:55:56;28.60;1.00
21255;DHT22;10785;50.674;17.954;2023-07-24T07:58:25;28.80;1.00
21255;DHT22;10785;50.674;17.954;2023-07-24T08:00:54;28.80;1.00
21255;DHT22;10785;50.674;17.954;2023-07-24T08:03:23;29.00;1.00
21255;DHT22;10785;50.674;17.954;2023-07-24T08:05:51;29.10;1.00
21255;DHT22;10785;50.674;17.954;2023-07-24T08:08:20;29.60;1.00
21255;DHT22;10785;50.674;17.954;2023-07-24T08:10:48;29.50;1.00
21255;DHT22;10785;50.674;17.954;2023-07-24T08:13:18;29.60;1.00
21255;DHT22;10785;50.674;17.954;2023-07-24T08:15:47;29.80;1.00
21255;DHT22;10785;50.674;17.954;2023-07-24T08:18:16;30.00;1.00
21255;DHT22;10785;50.674;17.954;2023-07-24T08:20:44;29.90;1.00
21255;DHT22;10785;50.674;17.954;2023-07-24T08:23:13;29.80;1.00
21255;DHT22;10785;50.674;17.954;2023-07-24T08:25:51;29.40;1.00
21255;DHT22;10785;50.674;17.954;2023-07-24T08:28:21;28.90;1.00
21255;DHT22;10785;50.674;17.954;2023-07-24T08:30:57;28.90;1.00
21255;DHT22;10785;50.674;17.954;2023-07-24T08:33:26;28.90;1.00
21255;DHT22;10785;50.674;17.954;2023-07-24T08:36:01;29.00;1.00
21255;DHT22;10785;50.674;17.954;2023-07-24T08:38:31;29.00;1.00
21255;DHT22;10785;50.674;17.954;2023-07-24T08:41:04;28.80;1.00
21255;DHT22;10785;50.674;17.954;2023-07-24T08:43:35;28.70;1.00
21255;DHT22;10785;50.674;17.954;2023-07-24T08:46:05;28.70;1.00
21255;DHT22;10785;50.674;17.954;2023-07-24T08:48:36;28.80;1.00
21255;DHT22;10785;50.674;17.954;2023-07-24T08:51:06;28.80;1.00
21255;DHT22;10785;50.674;17.954;2023-07-24T08:53:37;28.80;1.00
21255;DHT22;10785;50.674;17.954;2023-07-24T08:56:08;28.70;1.00
21255;DHT22;10785;50.674;17.954;2023-07-24T08:58:38;28.80;1.00
21255;DHT22;10785;50.674;17.954;2023-07-24T09:01:08;29.00;1.00
21255;DHT22;10785;50.674;17.954;2023-07-24T09:03:37;28.90;1.00
21255;DHT22;10785;50.674;17.954;2023-07-24T09:06:06;29.10;1.00
21255;DHT22;10785;50.674;17.954;2023-07-24T09:08:37;29.00;1.00
21255;DHT22;10785;50.674;17.954;2023-07-24T09:11:07;28.90;1.00
21255;DHT22;10785;50.674;17.954;2023-07-24T09:13:41;29.00;1.00
21255;DHT22;10785;50.674;17.954;2023-07-24T09:16:21;28.90;1.00
21255;DHT22;10785;50.674;17.954;2023-07-24T09:18:52;28.90;1.00
21255;DHT22;10785;50.674;17.954;2023-07-24T09:21:28;28.90;1.00
21255;DHT22;10785;50.674;17.954;2023-07-24T09:23:57;28.70;1.00
21255;DHT22;10785;50.674;17.954;2023-07-24T09:26:47;28.60;1.00
21255;DHT22;10785;50.674;17.954;2023-07-24T09:29:17;28.80;1.00
21255;DHT22;10785;50.674;17.954;2023-07-24T09:31:46;29.00;1.00
21255;DHT22;10785;50.674;17.954;2023-07-24T09:34:18;29.00;1.00
21255;DHT22;10785;50.674;17.954;2023-07-24T09:36:47;29.20;1.00
21255;DHT22;10785;50.674;17.954;2023-07-24T09:39:23;29.00;1.00
21255;DHT22;10785;50.674;17.954;2023-07-24T09:41:51;29.20;1.00
21255;DHT22;10785;50.674;17.954;2023-07-24T09:44:25;29.40;1.00
21255;DHT22;10785;50.674;17.954;2023-07-24T09:46:55;29.50;1.00
21255;DHT22;10785;50.674;17.954;2023-07-24T09:49:26;29.40;1.00
21255;DHT22;10785;50.674;17.954;2023-07-24T09:51:59;29.40;1.00
21255;DHT22;10785;50.674;17.954;2023-07-24T09:54:33;29.50;1.00
21255;DHT22;10785;50.674;17.954;2023-07-24T09:57:08;29.50;1.00
21255;DHT22;10785;50.674;17.954;2023-07-24T09:59:50;29.20;1.00
21255;DHT22;10785;50.674;17.954;2023-07-24T10:02:20;29.20;1.00
21255;DHT22;10785;50.674;17.954;2023-07-24T10:04:50;29.60;1.00
21255;DHT22;10785;50.674;17.954;2023-07-24T10:07:19;29.70;1.00
21255;DHT22;10785;50.674;17.954;2023-07-24T10:09:50;29.80;1.00
21255;DHT22;10785;50.674;17.954;2023-07-24T10:12:20;30.10;1.00
21255;DHT22;10785;50.674;17.954;2023-07-24T10:14:50;30.10;1.00
21255;DHT22;10785;50.674;17.954;2023-07-24T10:17:34;30.20;1.00
21255;DHT22;10785;50.674;17.954;2023-07-24T10:20:04;30.50;1.00
21255;DHT22;10785;50.674;17.954;2023-07-24T10:22:33;30.90;1.00
21255;DHT22;10785;50.674;17.954;2023-07-24T10:25:03;30.80;1.00
21255;DHT22;10785;50.674;17.954;2023-07-24T10:27:32;30.60;1.00
21255;DHT22;10785;50.674;17.954;2023-07-24T10:30:06;30.60;1.00
21255;DHT22;10785;50.674;17.954;2023-07-24T10:32:54;30.80;1.00
21255;DHT22;10785;50.674;17.954;2023-07-24T10:35:37;31.10;1.00
21255;DHT22;10785;50.674;17.954;2023-07-24T10:38:05;31.10;1.00
21255;DHT22;10785;50.674;17.954;2023-07-24T10:40:34;30.80;1.00
21255;DHT22;10785;50.674;17.954;2023-07-24T10:43:06;30.60;1.00
21255;DHT22;10785;50.674;17.954;2023-07-24T10:45:46;30.70;1.00
21255;DHT22;10785;50.674;17.954;2023-07-24T10:48:15;30.70;1.00
21255;DHT22;10785;50.674;17.954;2023-07-24T10:50:46;31.10;1.00
21255;DHT22;10785;50.674;17.954;2023-07-24T10:53:20;31.30;1.00
21255;DHT22;10785;50.674;17.954;2023-07-24T10:55:50;31.50;1.00
21255;DHT22;10785;50.674;17.954;2023-07-24T10:58:19;31.30;1.00
21255;DHT22;10785;50.674;17.954;2023-07-24T11:00:49;31.10;1.00
21255;DHT22;10785;50.674;17.954;2023-07-24T11:03:19;31.20;1.00
21255;DHT22;10785;50.674;17.954;2023-07-24T11:05:48;31.50;1.00
21255;DHT22;10785;50.674;17.954;2023-07-24T11:08:18;31.50;1.00
21255;DHT22;10785;50.674;17.954;2023-07-24T11:10:47;31.90;1.00
21255;DHT22;10785;50.674;17.954;2023-07-24T11:13:17;31.90;1.00
21255;DHT22;10785;50.674;17.954;2023-07-24T11:15:47;31.70;1.00
21255;DHT22;10785;50.674;17.954;2023-07-24T11:18:18;31.60;1.00
21255;DHT22;10785;50.674;17.954;2023-07-24T11:20:50;32.10;1.00
21255;DHT22;10785;50.674;17.954;2023-07-24T11:23:19;32.20;1.00
21255;DHT22;10785;50.674;17.954;2023-07-24T11:25:50;32.20;1.00
21255;DHT22;10785;50.674;17.954;2023-07-24T11:28:20;31.70;1.00
21255;DHT22;10785;50.674;17.954;2023-07-24T11:30:49;31.10;1.00
21255;DHT22;10785;50.674;17.954;2023-07-24T11:33:21;30.50;1.00
21255;DHT22;10785;50.674;17.954;2023-07-24T11:35:49;30.10;1.00
21255;DHT22;10785;50.674;17.954;2023-07-24T11:38:18;29.90;1.00
21255;DHT22;10785;50.674;17.954;2023-07-24T11:40:47;29.90;1.00
21255;DHT22;10785;50.674;17.954;2023-07-24T11:43:16;29.80;1.00
21255;DHT22;10785;50.674;17.954;2023-07-24T11:45:46;29.80;1.00
21255;DHT22;10785;50.674;17.954;2023-07-24T11:48:16;29.90;1.00
21255;DHT22;10785;50.674;17.954;2023-07-24T11:50:47;29.80;1.00
21255;DHT22;10785;50.674;17.954;2023-07-24T11:53:20;29.80;1.00
21255;DHT22;10785;50.674;17.954;2023-07-24T11:55:51;29.60;1.00
21255;DHT22;10785;50.674;17.954;2023-07-24T11:58:20;29.70;1.00
21255;DHT22;10785;50.674;17.954;2023-07-24T12:00:49;30.10;1.00
21255;DHT22;10785;50.674;17.954;2023-07-24T12:03:20;30.70;1.00
21255;DHT22;10785;50.674;17.954;2023-07-24T12:05:51;30.40;1.00
21255;DHT22;10785;50.674;17.954;2023-07-24T12:08:29;30.40;1.00
21255;DHT22;10785;50.674;17.954;2023-07-24T12:10:58;30.60;1.00
21255;DHT22;10785;50.674;17.954;2023-07-24T12:13:26;30.90;1.00
21255;DHT22;10785;50.674;17.954;2023-07-24T12:15:55;31.50;1.00
21255;DHT22;10785;50.674;17.954;2023-07-24T12:18:24;31.50;1.00
21255;DHT22;10785;50.674;17.954;2023-07-24T12:20:54;31.60;1.00
21255;DHT22;10785;50.674;17.954;2023-07-24T12:23:23;31.70;1.00
21255;DHT22;10785;50.674;17.954;2023-07-24T12:25:52;31.60;1.00
21255;DHT22;10785;50.674;17.954;2023-07-24T12:28:21;31.60;1.00
21255;DHT22;10785;50.674;17.954;2023-07-24T12:34:01;31.50;1.00
21255;DHT22;10785;50.674;17.954;2023-07-24T12:36:31;31.50;1.00
21255;DHT22;10785;50.674;17.954;2023-07-24T12:39:00;31.30;1.00
21255;DHT22;10785;50.674;17.954;2023-07-24T12:41:29;31.30;1.00
21255;DHT22;10785;50.674;17.954;2023-07-24T12:43:58;31.10;1.00
21255;DHT22;10785;50.674;17.954;2023-07-24T12:46:27;31.00;1.00
21255;DHT22;10785;50.674;17.954;2023-07-24T12:48:56;30.80;1.00
21255;DHT22;10785;50.674;17.954;2023-07-24T12:51:24;30.70;1.00
21255;DHT22;10785;50.674;17.954;2023-07-24T12:53:54;30.60;1.00
21255;DHT22;10785;50.674;17.954;2023-07-24T12:56:39;30.70;1.00
21255;DHT22;10785;50.674;17.954;2023-07-24T12:59:07;30.40;1.00
21255;DHT22;10785;50.674;17.954;2023-07-24T13:01:36;30.30;1.00
21255;DHT22;10785;50.674;17.954;2023-07-24T13:04:04;30.40;1.00
21255;DHT22;10785;50.674;17.954;2023-07-24T13:06:33;30.30;1.00
21255;DHT22;10785;50.674;17.954;2023-07-24T13:09:04;30.20;1.00
21255;DHT22;10785;50.674;17.954;2023-07-24T13:11:33;30.20;1.00
21255;DHT22;10785;50.674;17.954;2023-07-24T13:14:02;30.10;1.00
21255;DHT22;10785;50.674;17.954;2023-07-24T13:16:31;30.10;1.00
21255;DHT22;10785;50.674;17.954;2023-07-24T13:19:00;30.20;1.00
21255;DHT22;10785;50.674;17.954;2023-07-24T13:21:29;30.10;1.00
21255;DHT22;10785;50.674;17.954;2023-07-24T13:23:58;30.20;1.00
21255;DHT22;10785;50.674;17.954;2023-07-24T13:26:28;30.60;1.00
21255;DHT22;10785;50.674;17.954;2023-07-24T13:28:57;30.90;1.00
21255;DHT22;10785;50.674;17.954;2023-07-24T13:31:26;31.10;1.00
21255;DHT22;10785;50.674;17.954;2023-07-24T13:33:57;31.10;1.00
21255;DHT22;10785;50.674;17.954;2023-07-24T13:36:25;31.00;1.00
21255;DHT22;10785;50.674;17.954;2023-07-24T13:38:54;31.00;1.00
21255;DHT22;10785;50.674;17.954;2023-07-24T13:41:23;30.90;1.00
21255;DHT22;10785;50.674;17.954;2023-07-24T13:43:53;31.00;1.00
21255;DHT22;10785;50.674;17.954;2023-07-24T13:46:22;30.80;1.00
21255;DHT22;10785;50.674;17.954;2023-07-24T13:48:51;30.70;1.00
21255;DHT22;10785;50.674;17.954;2023-07-24T13:51:19;30.70;1.00
21255;DHT22;10785;50.674;17.954;2023-07-24T13:53:48;30.60;1.00
21255;DHT22;10785;50.674;17.954;2023-07-24T13:56:19;30.40;1.00
21255;DHT22;10785;50.674;17.954;2023-07-24T13:58:49;30.20;1.00
21255;DHT22;10785;50.674;17.954;2023-07-24T14:01:19;30.20;1.00
21255;DHT22;10785;50.674;17.954;2023-07-24T14:03:48;30.00;1.00
21255;DHT22;10785;50.674;17.954;2023-07-24T14:06:17;30.10;1.00
21255;DHT22;10785;50.674;17.954;2023-07-24T14:08:46;30.00;1.00
21255;DHT22;10785;50.674;17.954;2023-07-24T14:11:14;29.90;1.00
21255;DHT22;10785;50.674;17.954;2023-07-24T14:13:43;29.80;1.00
21255;DHT22;10785;50.674;17.954;2023-07-24T14:16:12;29.70;1.00
21255;DHT22;10785;50.674;17.954;2023-07-24T14:18:42;29.50;1.00
21255;DHT22;10785;50.674;17.954;2023-07-24T14:21:11;29.20;1.00
21255;DHT22;10785;50.674;17.954;2023-07-24T14:23:39;28.20;51.10
21255;DHT22;10785;50.674;17.954;2023-07-24T14:26:08;25.60;99.90
21255;DHT22;10785;50.674;17.954;2023-07-24T14:28:36;24.00;99.90
21255;DHT22;10785;50.674;17.954;2023-07-24T14:31:05;22.90;99.90
21255;DHT22;10785;50.674;17.954;2023-07-24T14:33:34;22.30;99.90
21255;DHT22;10785;50.674;17.954;2023-07-24T14:36:04;22.00;99.90
21255;DHT22;10785;50.674;17.954;2023-07-24T14:38:32;22.00;99.90
21255;DHT22;10785;50.674;17.954;2023-07-24T14:41:01;22.10;99.90
21255;DHT22;10785;50.674;17.954;2023-07-24T14:43:30;22.40;99.90
21255;DHT22;10785;50.674;17.954;2023-07-24T14:45:58;22.70;99.90
21255;DHT22;10785;50.674;17.954;2023-07-24T14:48:27;22.60;99.90
21255;DHT22;10785;50.674;17.954;2023-07-24T14:50:57;22.80;99.90
21255;DHT22;10785;50.674;17.954;2023-07-24T14:53:27;23.00;99.90
21255;DHT22;10785;50.674;17.954;2023-07-24T14:55:56;23.10;99.90
21255;DHT22;10785;50.674;17.954;2023-07-24T14:58:24;23.10;99.90
21255;DHT22;10785;50.674;17.954;2023-07-24T15:00:53;23.30;99.90
21255;DHT22;10785;50.674;17.954;2023-07-24T15:03:22;23.50;99.90
21255;DHT22;10785;50.674;17.954;2023-07-24T15:05:50;23.70;99.90
21255;DHT22;10785;50.674;17.954;2023-07-24T15:08:19;23.80;99.90
21255;DHT22;10785;50.674;17.954;2023-07-24T15:10:50;23.90;99.90
21255;DHT22;10785;50.674;17.954;2023-07-24T15:13:18;23.90;99.90
21255;DHT22;10785;50.674;17.954;2023-07-24T15:15:47;23.90;99.90
21255;DHT22;10785;50.674;17.954;2023-07-24T15:18:15;23.90;99.90
21255;DHT22;10785;50.674;17.954;2023-07-24T15:20:44;23.90;99.90
21255;DHT22;10785;50.674;17.954;2023-07-24T15:23:13;24.00;99.90
21255;DHT22;10785;50.674;17.954;2023-07-24T15:25:41;24.00;99.90
21255;DHT22;10785;50.674;17.954;2023-07-24T15:28:12;24.20;99.90
21255;DHT22;10785;50.674;17.954;2023-07-24T15:30:40;24.30;99.90
21255;DHT22;10785;50.674;17.954;2023-07-24T15:33:09;24.50;99.90
21255;DHT22;10785;50.674;17.954;2023-07-24T15:35:38;24.70;99.90
21255;DHT22;10785;50.674;17.954;2023-07-24T15:38:06;24.90;99.90
21255;DHT22;10785;50.674;17.954;2023-07-24T15:40:35;25.00;99.90
21255;DHT22;10785;50.674;17.954;2023-07-24T15:43:04;25.30;99.90
21255;DHT22;10785;50.674;17.954;2023-07-24T15:45:34;25.50;99.90